createdAt,value
2023-04-16T00:00:35.056Z,86.20
2023-04-16T00:03:02.384Z,86.12
2023-04-16T00:05:29.860Z,86.17
2023-04-16T00:07:57.104Z,86.08
2023-04-16T00:10:24.444Z,86.60
2023-04-16T00:12:51.781Z,87.05
2023-04-16T00:15:19.081Z,86.89
2023-04-16T00:17:46.435Z,86.92
2023-04-16T00:20:13.770Z,87.25
2023-04-16T00:22:41.040Z,87.03
2023-04-16T00:25:08.526Z,86.78
2023-04-16T00:27:35.851Z,86.89
2023-04-16T00:30:03.656Z,86.86
2023-04-16T00:32:31.087Z,86.83
2023-04-16T00:34:58.444Z,86.78
2023-04-16T00:37:25.787Z,86.45
2023-04-16T00:39:53.141Z,86.48
2023-04-16T00:42:20.352Z,86.04
2023-04-16T00:44:47.758Z,85.89
2023-04-16T00:47:15.177Z,85.67
2023-04-16T00:49:42.662Z,85.43
2023-04-16T00:52:12.368Z,85.21
2023-04-16T00:54:40.346Z,85.04
2023-04-16T00:57:07.978Z,84.80
2023-04-16T00:59:35.201Z,84.87
2023-04-16T01:02:03.271Z,84.82
2023-04-16T01:04:31.341Z,85.18
2023-04-16T01:06:58.723Z,85.34
2023-04-16T01:09:25.966Z,85.42
2023-04-16T01:11:53.292Z,85.33
2023-04-16T01:14:20.732Z,85.18
2023-04-16T01:16:48.244Z,85.14
2023-04-16T01:19:15.852Z,84.74
2023-04-16T01:21:43.223Z,84.42
2023-04-16T01:24:10.473Z,84.44
2023-04-16T01:26:37.789Z,84.73
2023-04-16T01:29:05.142Z,84.75
2023-04-16T01:31:33.419Z,84.68
2023-04-16T01:34:23.664Z,84.47
2023-04-16T01:36:51.561Z,84.77
2023-04-16T01:39:20.016Z,84.57
2023-04-16T01:41:47.351Z,84.54
2023-04-16T01:44:14.543Z,84.58
2023-04-16T01:46:44.462Z,84.42
2023-04-16T01:49:11.883Z,84.44
2023-04-16T01:51:39.295Z,84.18
2023-04-16T01:54:06.636Z,83.99
2023-04-16T01:56:34.048Z,84.01
2023-04-16T01:59:01.312Z,83.74
2023-04-16T02:01:34.986Z,83.75
2023-04-16T02:04:03.151Z,83.79
2023-04-16T02:06:32.157Z,83.67
2023-04-16T02:08:59.377Z,84.00
2023-04-16T02:11:26.915Z,84.04
2023-04-16T02:13:55.054Z,84.21
2023-04-16T02:16:22.483Z,84.04
2023-04-16T02:18:52.842Z,84.33
2023-04-16T02:21:22.362Z,84.17
2023-04-16T02:23:52.202Z,84.37
2023-04-16T02:26:26.709Z,84.85
2023-04-16T02:28:56.786Z,84.81
2023-04-16T02:31:30.088Z,84.65
2023-04-16T02:33:58.267Z,84.45
2023-04-16T02:36:26.031Z,84.47
2023-04-16T02:38:55.457Z,84.63
2023-04-16T02:41:22.714Z,84.66
2023-04-16T02:43:50.026Z,84.63
2023-04-16T02:46:17.453Z,84.45
2023-04-16T02:48:44.906Z,84.43
2023-04-16T02:51:12.176Z,84.41
2023-04-16T02:53:39.558Z,84.64
2023-04-16T02:56:07.558Z,84.52
2023-04-16T02:58:34.753Z,84.61
2023-04-16T03:01:02.182Z,84.62
2023-04-16T03:03:29.780Z,84.54
2023-04-16T03:05:57.180Z,84.66
2023-04-16T03:08:24.516Z,84.63
2023-04-16T03:10:52.019Z,84.46
2023-04-16T03:13:19.384Z,84.18
2023-04-16T03:15:50.432Z,83.99
2023-04-16T03:18:17.892Z,83.98
2023-04-16T03:20:45.218Z,84.06
2023-04-16T03:23:12.508Z,83.94
2023-04-16T03:25:41.284Z,83.87
2023-04-16T03:28:10.055Z,83.67
2023-04-16T03:30:38.362Z,83.63
2023-04-16T03:33:07.021Z,83.74
2023-04-16T03:35:35.132Z,83.70
2023-04-16T03:38:03.265Z,83.75
2023-04-16T03:40:30.690Z,83.67
2023-04-16T03:43:00.463Z,83.65
2023-04-16T03:45:28.842Z,83.97
2023-04-16T03:47:56.546Z,83.83
2023-04-16T03:50:26.265Z,83.96
2023-04-16T03:52:53.551Z,84.26
2023-04-16T03:55:20.852Z,84.45
2023-04-16T03:57:48.038Z,84.63
2023-04-16T04:00:17.146Z,84.88
2023-04-16T04:03:00.054Z,85.30
2023-04-16T04:05:27.993Z,85.43
2023-04-16T04:07:55.206Z,86.16
2023-04-16T04:10:23.351Z,86.12
2023-04-16T04:12:50.993Z,86.24
2023-04-16T04:15:18.525Z,86.22
2023-04-16T04:17:46.471Z,86.59
2023-04-16T04:20:14.011Z,86.45
2023-04-16T04:22:44.622Z,86.67
2023-04-16T04:25:12.856Z,86.70
2023-04-16T04:27:40.589Z,86.62
2023-04-16T04:30:09.263Z,86.75
2023-04-16T04:32:36.645Z,86.46
2023-04-16T04:35:04.396Z,86.62
2023-04-16T04:37:31.841Z,86.18
2023-04-16T04:39:59.642Z,86.43
2023-04-16T04:42:27.581Z,86.51
2023-04-16T04:44:55.653Z,86.55
2023-04-16T04:47:24.047Z,86.51
2023-04-16T04:49:53.522Z,86.41
2023-04-16T04:52:21.108Z,86.54
2023-04-16T04:54:50.010Z,86.46
2023-04-16T04:57:17.469Z,86.39
2023-04-16T04:59:45.121Z,86.38
2023-04-16T05:02:14.421Z,86.27
2023-04-16T05:04:41.782Z,86.30
2023-04-16T05:07:09.044Z,86.39
2023-04-16T05:09:36.324Z,85.94
2023-04-16T05:12:04.663Z,86.14
2023-04-16T05:14:31.917Z,86.11
2023-04-16T05:16:59.384Z,85.76
2023-04-16T05:19:26.605Z,85.82
2023-04-16T05:21:54.881Z,86.04
2023-04-16T05:24:22.760Z,85.91
2023-04-16T05:26:50.043Z,85.84
2023-04-16T05:29:17.413Z,85.50
2023-04-16T05:31:44.883Z,85.23
2023-04-16T05:34:12.243Z,85.33
2023-04-16T05:36:39.656Z,85.68
2023-04-16T05:39:08.312Z,84.90
2023-04-16T05:41:35.793Z,84.95
2023-04-16T05:44:03.115Z,84.67
2023-04-16T05:46:30.461Z,84.58
2023-04-16T05:48:57.689Z,84.10
2023-04-16T05:51:26.637Z,84.46
2023-04-16T05:53:53.949Z,84.78
2023-04-16T05:56:22.567Z,84.71
2023-04-16T05:58:49.818Z,84.91
2023-04-16T06:01:17.121Z,84.92
2023-04-16T06:03:45.732Z,84.50
2023-04-16T06:06:13.398Z,84.41
2023-04-16T06:08:40.639Z,83.95
2023-04-16T06:11:07.969Z,83.73
2023-04-16T06:13:35.402Z,83.89
2023-04-16T06:16:02.808Z,83.71
2023-04-16T06:18:30.152Z,83.24
2023-04-16T06:20:59.491Z,83.34
2023-04-16T06:23:26.799Z,83.49
2023-04-16T06:25:54.728Z,82.32
2023-04-16T06:28:22.277Z,81.44
2023-04-16T06:30:49.597Z,81.22
2023-04-16T06:33:17.141Z,80.92
2023-04-16T06:35:44.379Z,81.35
2023-04-16T06:38:11.691Z,81.31
2023-04-16T06:40:39.167Z,81.68
2023-04-16T06:43:06.666Z,81.39
2023-04-16T06:45:33.998Z,80.44
2023-04-16T06:48:01.966Z,81.32
2023-04-16T06:50:29.249Z,81.18
2023-04-16T06:52:56.996Z,81.38
2023-04-16T06:55:24.319Z,80.95
2023-04-16T06:57:51.617Z,80.58
2023-04-16T07:00:19.199Z,80.81
2023-04-16T07:02:46.720Z,80.09
2023-04-16T07:05:14.109Z,80.64
2023-04-16T07:07:41.523Z,81.12
2023-04-16T07:10:09.177Z,80.93
2023-04-16T07:12:36.652Z,80.50
2023-04-16T07:15:04.150Z,80.20
2023-04-16T07:17:31.469Z,79.26
2023-04-16T07:19:58.854Z,78.97
2023-04-16T07:22:26.232Z,78.13
2023-04-16T07:24:53.440Z,77.21
2023-04-16T07:27:20.722Z,77.13
2023-04-16T07:29:48.007Z,76.24
2023-04-16T07:32:15.612Z,75.76
2023-04-16T07:34:43.125Z,75.71
2023-04-16T07:37:10.440Z,74.79
2023-04-16T07:39:37.788Z,74.71
2023-04-16T07:42:05.116Z,74.14
2023-04-16T07:44:32.439Z,73.69
2023-04-16T07:46:59.856Z,73.02
2023-04-16T07:49:27.139Z,72.38
2023-04-16T07:51:54.409Z,72.15
2023-04-16T07:54:21.831Z,71.06
2023-04-16T07:56:49.128Z,70.89
2023-04-16T07:59:22.697Z,70.89
2023-04-16T08:01:50.956Z,70.97
2023-04-16T08:04:23.514Z,69.89
2023-04-16T08:06:51.991Z,69.73
2023-04-16T08:09:24.256Z,69.74
2023-04-16T08:11:51.706Z,69.98
2023-04-16T08:14:19.008Z,69.02
2023-04-16T08:16:46.556Z,68.62
2023-04-16T08:19:13.827Z,67.61
2023-04-16T08:21:41.416Z,67.92
2023-04-16T08:24:08.702Z,67.38
2023-04-16T08:26:36.357Z,66.93
2023-04-16T08:29:03.661Z,66.02
2023-04-16T08:31:31.101Z,65.81
2023-04-16T08:33:58.462Z,64.64
2023-04-16T08:36:26.041Z,62.92
2023-04-16T08:38:53.265Z,61.63
2023-04-16T08:41:22.553Z,60.83
2023-04-16T08:43:52.232Z,59.93
2023-04-16T08:46:23.279Z,59.06
2023-04-16T08:48:55.588Z,59.10
2023-04-16T08:51:24.536Z,57.76
2023-04-16T08:54:05.825Z,56.78
2023-04-16T08:56:37.401Z,56.54
2023-04-16T08:59:05.941Z,56.36
2023-04-16T09:01:33.906Z,57.23
2023-04-16T09:04:16.333Z,57.57
2023-04-16T09:06:44.465Z,56.69
2023-04-16T09:09:13.120Z,57.10
2023-04-16T09:11:40.482Z,57.03
2023-04-16T09:14:11.829Z,57.37
2023-04-16T09:16:40.318Z,56.74
2023-04-16T09:19:07.886Z,56.70
2023-04-16T09:21:36.212Z,55.15
2023-04-16T09:24:04.299Z,56.67
2023-04-16T09:26:31.951Z,56.70
2023-04-16T09:28:59.425Z,55.64
2023-04-16T09:31:27.705Z,54.93
2023-04-16T09:34:15.184Z,55.91
2023-04-16T09:36:43.214Z,55.76
2023-04-16T09:39:20.232Z,55.31
2023-04-16T09:41:48.457Z,55.54
2023-04-16T09:44:15.742Z,56.24
2023-04-16T09:46:44.313Z,55.81
2023-04-16T09:49:15.236Z,55.45
2023-04-16T09:51:43.698Z,55.39
2023-04-16T09:54:11.268Z,55.68
2023-04-16T09:56:47.324Z,56.68
2023-04-16T09:59:22.005Z,55.95
2023-04-16T10:01:50.194Z,55.21
2023-04-16T10:04:17.860Z,55.58
2023-04-16T10:06:47.406Z,56.51
2023-04-16T10:09:14.635Z,58.22
2023-04-16T10:11:42.035Z,58.24
2023-04-16T10:14:09.501Z,57.42
2023-04-16T10:16:37.246Z,58.15
2023-04-16T10:19:05.263Z,58.80
2023-04-16T10:21:34.539Z,59.08
2023-04-16T10:24:02.139Z,58.70
2023-04-16T10:26:30.935Z,58.99
2023-04-16T10:28:59.854Z,58.36
2023-04-16T10:31:29.259Z,59.52
2023-04-16T10:33:57.272Z,58.08
2023-04-16T10:36:26.838Z,57.26
2023-04-16T10:38:59.083Z,56.91
2023-04-16T10:41:27.231Z,57.00
2023-04-16T10:44:07.153Z,56.34
2023-04-16T10:46:45.141Z,54.59
2023-04-16T10:49:25.396Z,55.36
2023-04-16T10:52:00.681Z,54.20
2023-04-16T10:54:31.998Z,54.35
2023-04-16T10:57:04.464Z,55.88
2023-04-16T10:59:35.308Z,55.59
2023-04-16T11:02:09.749Z,56.07
2023-04-16T11:04:39.313Z,56.98
2023-04-16T11:07:16.051Z,57.49
2023-04-16T11:10:04.825Z,58.31
2023-04-16T11:12:38.834Z,58.77
2023-04-16T11:15:10.994Z,59.10
2023-04-16T11:17:45.758Z,59.39
2023-04-16T11:20:20.467Z,59.67
2023-04-16T11:22:53.588Z,60.46
2023-04-16T11:25:22.124Z,60.92
2023-04-16T11:27:50.098Z,60.68
2023-04-16T11:30:18.027Z,61.01
2023-04-16T11:32:45.745Z,61.04
2023-04-16T11:35:18.890Z,60.01
2023-04-16T11:37:49.030Z,60.11
2023-04-16T11:40:16.370Z,60.64
2023-04-16T11:42:44.699Z,60.70
2023-04-16T11:45:12.873Z,60.70
2023-04-16T11:47:58.332Z,61.41
2023-04-16T11:50:29.570Z,62.04
2023-04-16T11:53:03.810Z,61.51
2023-04-16T11:55:31.474Z,61.50
2023-04-16T11:58:12.574Z,62.23
2023-04-16T12:00:41.961Z,62.54
2023-04-16T12:03:09.648Z,61.82
2023-04-16T12:05:41.916Z,62.63
2023-04-16T12:08:10.983Z,61.99
2023-04-16T12:10:54.339Z,62.25
2023-04-16T12:13:21.801Z,61.27
2023-04-16T12:15:54.278Z,60.39
2023-04-16T12:18:24.139Z,59.68
2023-04-16T12:20:51.686Z,58.44
2023-04-16T12:23:30.665Z,58.35
2023-04-16T12:26:03.080Z,58.38
2023-04-16T12:28:33.434Z,57.53
2023-04-16T12:31:01.950Z,57.39
2023-04-16T12:33:29.911Z,55.98
2023-04-16T12:35:57.324Z,57.31
2023-04-16T12:38:25.911Z,57.21
2023-04-16T12:40:57.093Z,58.04
2023-04-16T12:43:25.515Z,58.72
2023-04-16T12:45:52.972Z,58.08
2023-04-16T12:48:20.373Z,58.21
2023-04-16T12:50:47.863Z,57.60
2023-04-16T12:53:15.226Z,56.43
2023-04-16T12:55:42.509Z,57.09
2023-04-16T12:58:11.871Z,56.24
2023-04-16T13:00:40.854Z,55.96
2023-04-16T13:03:08.485Z,55.77
2023-04-16T13:05:35.824Z,56.07
2023-04-16T13:08:03.262Z,54.63
2023-04-16T13:10:30.633Z,54.04
2023-04-16T13:12:57.895Z,55.32
2023-04-16T13:15:25.120Z,55.27
2023-04-16T13:17:52.484Z,54.25
2023-04-16T13:20:19.719Z,54.40
2023-04-16T13:22:47.034Z,54.69
2023-04-16T13:25:14.247Z,56.02
2023-04-16T13:27:41.966Z,56.51
2023-04-16T13:30:09.552Z,57.08
2023-04-16T13:32:36.957Z,58.30
2023-04-16T13:35:05.118Z,59.03
2023-04-16T13:37:32.481Z,60.37
2023-04-16T13:39:59.715Z,59.72
2023-04-16T13:42:27.225Z,60.51
2023-04-16T13:44:55.339Z,61.06
2023-04-16T13:47:22.663Z,61.81
2023-04-16T13:49:49.949Z,61.76
2023-04-16T13:52:17.259Z,62.18
2023-04-16T13:54:44.521Z,62.39
2023-04-16T13:57:20.259Z,62.34
2023-04-16T13:59:47.540Z,62.35
2023-04-16T14:02:15.437Z,62.11
2023-04-16T14:04:42.662Z,61.58
2023-04-16T14:07:09.966Z,62.33
2023-04-16T14:09:37.230Z,62.88
2023-04-16T14:12:04.768Z,63.71
2023-04-16T14:14:32.241Z,63.92
2023-04-16T14:17:00.120Z,64.00
2023-04-16T14:19:27.353Z,64.66
2023-04-16T14:21:54.843Z,64.51
2023-04-16T14:24:22.034Z,64.19
2023-04-16T14:26:49.248Z,64.66
2023-04-16T14:29:16.490Z,64.25
2023-04-16T14:31:43.753Z,64.31
2023-04-16T14:34:11.221Z,63.37
2023-04-16T14:36:38.652Z,64.20
2023-04-16T14:39:05.820Z,65.29
2023-04-16T14:41:33.010Z,65.11
2023-04-16T14:44:00.357Z,65.49
2023-04-16T14:46:27.613Z,65.37
2023-04-16T14:48:54.980Z,66.44
2023-04-16T14:51:22.328Z,66.36
2023-04-16T14:53:49.636Z,67.27
2023-04-16T14:56:16.910Z,68.07
2023-04-16T14:58:44.152Z,68.96
2023-04-16T15:01:13.954Z,69.17
2023-04-16T15:03:42.235Z,68.20
2023-04-16T15:06:11.451Z,67.97
2023-04-16T15:08:39.009Z,67.77
2023-04-16T15:11:06.240Z,66.96
2023-04-16T15:13:36.789Z,66.82
2023-04-16T15:16:07.456Z,66.67
2023-04-16T15:18:34.861Z,67.05
2023-04-16T15:21:02.081Z,68.03
2023-04-16T15:23:29.395Z,68.01
2023-04-16T15:25:56.751Z,68.17
2023-04-16T15:28:24.241Z,67.45
2023-04-16T15:30:52.565Z,67.39
2023-04-16T15:33:23.212Z,68.27
2023-04-16T15:35:51.929Z,67.74
2023-04-16T15:38:21.849Z,67.26
2023-04-16T15:40:49.199Z,67.57
2023-04-16T15:43:17.040Z,68.45
2023-04-16T15:45:44.242Z,69.13
2023-04-16T15:48:11.663Z,69.13
2023-04-16T15:50:39.037Z,69.09
2023-04-16T15:53:06.333Z,68.36
2023-04-16T15:55:33.579Z,68.91
2023-04-16T15:58:01.068Z,68.17
2023-04-16T16:00:28.312Z,68.13
2023-04-16T16:02:55.647Z,68.67
2023-04-16T16:05:23.012Z,68.42
2023-04-16T16:07:50.354Z,68.49
2023-04-16T16:10:17.770Z,68.13
2023-04-16T16:12:45.283Z,68.25
2023-04-16T16:15:12.826Z,68.93
2023-04-16T16:17:41.240Z,69.56
2023-04-16T16:20:11.404Z,69.76
2023-04-16T16:22:39.522Z,70.48
2023-04-16T16:25:07.753Z,71.10
2023-04-16T16:27:36.652Z,71.86
2023-04-16T16:30:07.094Z,72.12
2023-04-16T16:32:34.589Z,72.45
2023-04-16T16:35:02.067Z,73.02
2023-04-16T16:37:29.817Z,72.97
2023-04-16T16:39:57.172Z,73.33
2023-04-16T16:42:24.588Z,72.90
2023-04-16T16:44:51.942Z,73.73
2023-04-16T16:47:19.271Z,74.77
2023-04-16T16:49:46.991Z,75.24
2023-04-16T16:52:14.483Z,75.15
2023-04-16T16:54:43.281Z,75.74
2023-04-16T16:57:10.686Z,75.35
2023-04-16T16:59:37.893Z,76.19
2023-04-16T17:02:06.043Z,76.06
2023-04-16T17:04:33.320Z,76.25
2023-04-16T17:07:00.872Z,76.41
2023-04-16T17:09:28.265Z,76.88
2023-04-16T17:11:55.548Z,77.07
2023-04-16T17:14:22.875Z,77.50
2023-04-16T17:16:50.412Z,77.49
2023-04-16T17:19:18.263Z,77.77
2023-04-16T17:21:45.946Z,78.06
2023-04-16T17:24:13.346Z,78.09
2023-04-16T17:26:41.653Z,78.20
2023-04-16T17:29:08.998Z,78.14
2023-04-16T17:31:36.859Z,78.39
2023-04-16T17:34:06.508Z,78.42
2023-04-16T17:36:33.836Z,78.19
2023-04-16T17:39:01.245Z,77.96
2023-04-16T17:41:28.508Z,77.99
2023-04-16T17:43:55.892Z,78.08
2023-04-16T17:46:23.341Z,78.52
2023-04-16T17:48:50.745Z,79.16
2023-04-16T17:51:18.014Z,78.94
2023-04-16T17:53:45.536Z,78.87
2023-04-16T17:56:13.985Z,79.97
2023-04-16T17:58:41.333Z,79.69
2023-04-16T18:01:08.900Z,80.92
2023-04-16T18:03:37.835Z,80.53
2023-04-16T18:06:05.463Z,80.75
2023-04-16T18:08:34.154Z,81.03
2023-04-16T18:11:01.405Z,81.57
2023-04-16T18:13:28.741Z,81.73
2023-04-16T18:15:56.448Z,81.82
2023-04-16T18:18:23.911Z,81.86
2023-04-16T18:20:52.862Z,83.18
2023-04-16T18:23:20.214Z,83.67
2023-04-16T18:25:48.832Z,83.92
2023-04-16T18:28:18.185Z,83.62
2023-04-16T18:30:45.979Z,83.40
2023-04-16T18:35:43.719Z,82.54
2023-04-16T18:38:11.050Z,83.58
2023-04-16T18:40:38.234Z,83.92
2023-04-16T18:43:06.098Z,83.37
2023-04-16T18:45:34.340Z,82.94
2023-04-16T18:48:04.248Z,82.67
2023-04-16T18:50:31.578Z,82.77
2023-04-16T18:52:58.848Z,83.03
2023-04-16T18:55:26.367Z,83.60
2023-04-16T18:57:53.739Z,83.88
2023-04-16T19:00:21.185Z,84.44
2023-04-16T19:02:48.700Z,85.28
2023-04-16T19:05:16.189Z,85.57
2023-04-16T19:07:43.505Z,86.26
2023-04-16T19:10:10.994Z,86.31
2023-04-16T19:12:38.340Z,86.55
2023-04-16T19:15:06.148Z,86.49
2023-04-16T19:17:33.535Z,86.22
2023-04-16T19:20:01.006Z,86.48
2023-04-16T19:22:28.689Z,86.82
2023-04-16T19:24:56.095Z,86.41
2023-04-16T19:27:23.412Z,86.69
2023-04-16T19:29:50.722Z,86.95
2023-04-16T19:32:18.013Z,87.03
2023-04-16T19:34:45.360Z,87.00
2023-04-16T19:37:12.694Z,87.35
2023-04-16T19:39:40.008Z,87.56
2023-04-16T19:42:07.682Z,87.60
2023-04-16T19:44:36.208Z,88.01
2023-04-16T19:47:03.641Z,88.47
2023-04-16T19:49:34.479Z,88.35
2023-04-16T19:52:02.171Z,88.09
2023-04-16T19:54:29.575Z,88.16
2023-04-16T19:56:57.605Z,88.07
2023-04-16T19:59:28.442Z,88.25
2023-04-16T20:01:55.630Z,89.53
2023-04-16T20:04:22.987Z,90.33
2023-04-16T20:06:50.320Z,90.31
2023-04-16T20:09:20.510Z,90.64
2023-04-16T20:11:48.169Z,90.46
2023-04-16T20:14:15.673Z,90.75
2023-04-16T20:16:44.002Z,90.44
2023-04-16T20:19:11.639Z,90.43
2023-04-16T20:21:40.739Z,90.78
2023-04-16T20:24:11.240Z,90.93
2023-04-16T20:26:38.499Z,90.88
2023-04-16T20:29:06.141Z,91.10
2023-04-16T20:31:33.350Z,91.15
2023-04-16T20:34:00.995Z,90.86
2023-04-16T20:36:28.317Z,91.69
2023-04-16T20:38:55.764Z,91.69
2023-04-16T20:41:23.061Z,92.25
2023-04-16T20:43:53.279Z,92.48
2023-04-16T20:46:24.752Z,92.65
2023-04-16T20:48:52.250Z,92.88
2023-04-16T20:51:20.290Z,92.69
2023-04-16T20:53:47.857Z,92.83
2023-04-16T20:56:15.261Z,93.32
2023-04-16T20:58:45.523Z,93.53
2023-04-16T21:01:12.996Z,93.70
2023-04-16T21:03:40.401Z,93.68
2023-04-16T21:06:07.986Z,93.77
2023-04-16T21:08:35.837Z,94.09
2023-04-16T21:11:03.190Z,94.33
2023-04-16T21:13:30.462Z,94.16
2023-04-16T21:15:57.734Z,94.06
2023-04-16T21:18:25.004Z,94.05
2023-04-16T21:20:52.184Z,93.92
2023-04-16T21:23:19.624Z,93.78
2023-04-16T21:25:46.979Z,93.54
2023-04-16T21:28:14.372Z,93.03
2023-04-16T21:30:42.216Z,92.44
2023-04-16T21:33:09.516Z,91.64
2023-04-16T21:35:36.745Z,91.22
2023-04-16T21:38:04.079Z,90.91
2023-04-16T21:40:31.332Z,90.75
2023-04-16T21:42:58.696Z,90.20
2023-04-16T21:45:25.915Z,89.99
2023-04-16T21:47:53.204Z,89.53
2023-04-16T21:50:20.793Z,89.62
2023-04-16T21:52:48.134Z,89.46
2023-04-16T21:55:15.432Z,89.29
2023-04-16T21:57:42.727Z,88.99
2023-04-16T22:00:14.577Z,88.87
2023-04-16T22:02:45.058Z,88.62
2023-04-16T22:05:12.657Z,88.52
2023-04-16T22:07:40.163Z,88.24
2023-04-16T22:10:09.423Z,88.04
2023-04-16T22:12:40.161Z,87.83
2023-04-16T22:15:08.406Z,87.62
2023-04-16T22:17:35.731Z,87.45
2023-04-16T22:20:09.351Z,87.15
2023-04-16T22:22:36.647Z,87.10
2023-04-16T22:25:04.276Z,86.78
2023-04-16T22:27:31.634Z,86.74
2023-04-16T22:29:58.886Z,86.55
2023-04-16T22:32:26.551Z,86.92
2023-04-16T22:34:53.894Z,86.76
2023-04-16T22:37:21.271Z,87.99
2023-04-16T22:39:48.476Z,88.74
2023-04-16T22:42:15.772Z,89.43
2023-04-16T22:44:42.940Z,89.26
2023-04-16T22:47:10.192Z,89.21
2023-04-16T22:49:37.394Z,89.59
2023-04-16T22:52:04.796Z,89.99
2023-04-16T22:54:32.882Z,90.45
2023-04-16T22:57:00.350Z,90.68
2023-04-16T22:59:27.614Z,90.93
2023-04-16T23:01:55.015Z,91.02
2023-04-16T23:04:22.448Z,90.91
2023-04-16T23:06:49.822Z,90.89
2023-04-16T23:09:17.343Z,90.96
2023-04-16T23:11:44.563Z,91.17
2023-04-16T23:14:16.234Z,92.01
2023-04-16T23:16:44.222Z,92.15
2023-04-16T23:19:15.295Z,92.24
2023-04-16T23:21:42.655Z,92.15
2023-04-16T23:24:09.933Z,92.15
2023-04-16T23:26:37.217Z,92.43
2023-04-16T23:29:04.561Z,92.53
2023-04-16T23:31:32.027Z,92.35
2023-04-16T23:33:59.240Z,92.16
2023-04-16T23:36:27.272Z,91.96
2023-04-16T23:38:54.591Z,91.82
2023-04-16T23:41:23.608Z,91.63
2023-04-16T23:43:51.075Z,91.33
2023-04-16T23:46:18.402Z,91.11
2023-04-16T23:48:45.657Z,91.08
2023-04-16T23:51:12.983Z,91.15
2023-04-16T23:53:41.208Z,90.96
2023-04-16T23:56:11.621Z,90.52
2023-04-16T23:58:38.912Z,90.29
